Time;durP1;ratioP1;P1;durP2;ratioP2;P2;SDS_P1;SDS_P2;PMS_P1;PMS_P2;Temp;Humidity;BMP_temperature;BMP_pressure;BME280_temperature;BME280_humidity;BME280_pressure;Samples;Min_cycle;Max_cycle;Signal;HPM_P1;HPM_P2
2022/10/05 00:00:49;;;;;;;3.80;1.70;;;;;;;9.19;80.21;98775.38;5067190;28;20415;-48
2022/10/05 00:03:15;;;;;;;3.20;1.60;;;;;;;8.98;79.92;98727.03;5035481;28;20567;-51
2022/10/05 00:05:46;;;;;;;2.90;1.60;;;;;;;9.37;80.38;98791.91;5068648;28;20143;-55
2022/10/05 00:08:22;;;;;;;4.10;1.67;;;;;;;9.42;80.37;98784.75;5068080;28;20440;-49
2022/10/05 00:10:48;;;;;;;2.92;1.40;;;;;;;9.42;79.87;98793.38;5065597;28;20044;-51
2022/10/05 00:13:18;;;;;;;1.98;1.45;;;;;;;9.47;80.31;98796.63;5056692;28;20089;-49
2022/10/05 00:15:44;;;;;;;2.25;1.60;;;;;;;9.18;80.61;98758.97;5069144;28;20036;-52
2022/10/05 00:18:18;;;;;;;3.35;1.65;;;;;;;9.33;80.64;98789.44;5085645;28;20036;-51
2022/10/05 00:20:47;;;;;;;3.20;1.80;;;;;;;9.34;80.79;98790.28;5067962;28;20043;-52
2022/10/05 00:23:24;;;;;;;2.30;1.50;;;;;;;9.28;80.51;98787.94;5069540;28;20044;-52
2022/10/05 00:25:50;;;;;;;4.28;1.65;;;;;;;9.27;80.94;98783.66;5068660;28;20105;-49
2022/10/05 00:28:29;;;;;;;2.13;1.40;;;;;;;9.30;81.26;98776.59;5067299;28;20130;-51
2022/10/05 00:31:01;;;;;;;1.90;1.43;;;;;;;9.42;81.20;98779.59;5067450;28;20154;-50
2022/10/05 00:33:27;;;;;;;4.20;1.73;;;;;;;9.50;80.74;98782.66;5049603;28;20773;-47
2022/10/05 00:35:54;;;;;;;2.60;1.63;;;;;;;9.48;80.72;98793.09;5069392;28;20135;-51
2022/10/05 00:38:20;;;;;;;2.25;1.50;;;;;;;9.47;80.64;98791.44;5068185;28;20067;-56
2022/10/05 00:41:03;;;;;;;2.42;1.52;;;;;;;9.47;80.92;98788.00;5065878;28;20143;-53
2022/10/05 00:43:54;;;;;;;2.80;1.90;;;;;;;9.43;81.33;98774.31;5067477;28;20125;-52
2022/10/05 00:46:27;;;;;;;2.53;1.83;;;;;;;9.44;80.72;98783.78;5066796;28;20076;-53
2022/10/05 00:49:02;;;;;;;3.17;1.42;;;;;;;9.45;80.73;98789.81;5068282;28;20054;-55
2022/10/05 00:51:33;;;;;;;2.50;2.05;;;;;;;9.39;80.75;98785.72;5066226;28;20041;-50
2022/10/05 00:54:25;;;;;;;2.17;1.58;;;;;;;9.31;81.00;98793.03;5067244;28;20135;-49
2022/10/05 00:57:10;;;;;;;1.73;1.60;;;;;;;9.26;80.87;98785.41;5068945;28;20044;-49
2022/10/05 00:59:48;;;;;;;3.35;1.98;;;;;;;9.24;81.17;98789.84;5084637;28;20129;-50
2022/10/05 01:02:32;;;;;;;2.78;1.88;;;;;;;9.21;81.16;98786.53;5068483;28;20052;-54
2022/10/05 01:05:08;;;;;;;2.20;1.65;;;;;;;9.16;81.47;98785.91;5067527;28;20040;-52
2022/10/05 01:07:34;;;;;;;4.47;1.70;;;;;;;9.20;81.28;98790.03;5071078;28;20401;-49
2022/10/05 01:10:17;;;;;;;2.75;1.63;;;;;;;9.08;81.56;98794.00;5071449;28;20040;-52
2022/10/05 01:13:02;;;;;;;2.00;1.65;;;;;;;9.03;82.27;98798.53;5072940;28;20074;-51
2022/10/05 01:15:48;;;;;;;2.28;1.90;;;;;;;9.00;82.39;98796.09;5054702;28;20583;-52
2022/10/05 01:18:24;;;;;;;2.35;1.90;;;;;;;9.03;82.76;98798.53;5055101;28;20036;-48
2022/10/05 01:21:22;;;;;;;2.30;1.70;;;;;;;9.02;82.85;98801.19;5072893;28;20463;-49
2022/10/05 01:24:10;;;;;;;3.60;1.83;;;;;;;9.01;83.12;98805.50;5029358;28;20600;-52
2022/10/05 01:27:05;;;;;;;2.22;1.77;;;;;;;9.06;82.81;98803.56;5071269;28;20119;-50
2022/10/05 01:30:00;;;;;;;2.97;2.38;;;;;;;9.07;82.77;98794.91;5062808;28;20048;-49
2022/10/05 01:32:30;;;;;;;3.78;1.95;;;;;;;9.02;83.56;98796.84;5068130;28;20076;-50
2022/10/05 01:35:28;;;;;;;2.58;2.05;;;;;;;9.05;83.66;98798.47;5051298;28;20059;-47
2022/10/05 01:38:51;;;;;;;2.77;2.10;;;;;;;8.96;84.51;98801.44;5067006;28;20040;-52
2022/10/05 01:41:18;;;;;;;5.10;2.15;;;;;;;8.92;84.96;98798.97;5033162;28;20048;-49
2022/10/05 01:43:48;;;;;;;3.55;1.98;;;;;;;8.93;85.47;98792.91;5050251;28;20040;-48
2022/10/05 01:46:49;;;;;;;2.50;1.70;;;;;;;8.81;86.17;98800.31;5031668;28;20131;-50
2022/10/05 01:49:39;;;;;;;5.30;2.53;;;;;;;8.77;87.27;98801.38;4999782;28;20049;-47
2022/10/05 01:52:08;;;;;;;2.45;2.20;;;;;;;8.74;87.68;98799.72;5049999;28;20128;-52
2022/10/05 01:55:10;;;;;;;4.25;2.10;;;;;;;8.48;88.56;98768.84;5049600;28;20041;-52
2022/10/05 01:58:04;;;;;;;5.18;2.10;;;;;;;8.68;88.89;98805.19;5049549;28;20140;-52
2022/10/05 02:00:34;;;;;;;2.80;2.00;;;;;;;8.63;89.28;98803.69;5049688;28;20528;-47
2022/10/05 02:03:11;;;;;;;2.67;1.60;;;;;;;8.71;89.47;98812.81;5037570;28;20041;-50
2022/10/05 02:05:46;;;;;;;4.35;2.50;;;;;;;8.61;89.95;98808.91;5033065;28;20044;-50
2022/10/05 02:08:25;;;;;;;7.13;2.30;;;;;;;8.55;90.27;98801.38;5045935;28;20041;-47
2022/10/05 02:10:58;;;;;;;2.67;2.10;;;;;;;8.50;91.08;98792.97;5049659;28;20167;-51
2022/10/05 02:13:37;;;;;;;2.88;2.20;;;;;;;8.58;91.49;98806.47;5054363;28;20055;-47
2022/10/05 02:16:30;;;;;;;4.97;2.42;;;;;;;8.61;92.22;98792.53;5037614;28;20041;-48
2022/10/05 02:19:01;;;;;;;2.88;2.10;;;;;;;8.61;92.36;98802.88;5035447;28;20041;-50
2022/10/05 02:21:29;;;;;;;4.70;2.53;;;;;;;8.35;92.72;98773.69;5053926;28;20063;-53
2022/10/05 02:23:59;;;;;;;3.50;2.25;;;;;;;8.56;93.10;98810.00;5053562;28;20095;-50
2022/10/05 02:26:26;;;;;;;3.08;2.28;;;;;;;8.52;93.56;98809.28;5037196;28;20040;-48
2022/10/05 02:29:03;;;;;;;4.20;2.42;;;;;;;8.47;94.13;98800.88;5069329;28;20044;-49
2022/10/05 02:31:59;;;;;;;3.67;2.55;;;;;;;8.53;94.35;98813.53;5050066;28;20036;-51
2022/10/05 02:34:30;;;;;;;3.75;2.60;;;;;;;8.57;94.28;98816.88;5049583;28;20049;-51
2022/10/05 02:37:31;;;;;;;4.72;2.50;;;;;;;8.59;94.44;98820.22;5053828;28;20135;-48
2022/10/05 02:40:15;;;;;;;4.55;2.67;;;;;;;8.58;94.60;98808.22;5070128;28;20071;-48
2022/10/05 02:43:18;;;;;;;2.80;2.13;;;;;;;8.59;94.58;98820.22;5069630;28;20040;-51
2022/10/05 02:45:52;;;;;;;2.90;2.30;;;;;;;8.50;94.77;98811.94;5068959;28;20119;-48
2022/10/05 02:48:43;;;;;;;2.83;1.85;;;;;;;8.29;94.74;98786.84;5069155;28;20064;-50
2022/10/05 02:51:23;;;;;;;2.53;1.73;;;;;;;8.41;95.12;98806.28;5053268;28;20557;-51
2022/10/05 02:53:55;;;;;;;2.38;2.08;;;;;;;8.39;95.50;98819.28;5053464;28;20462;-53
2022/10/05 02:56:38;;;;;;;3.70;2.50;;;;;;;8.08;95.63;98757.47;5086507;28;20042;-50
2022/10/05 02:59:07;;;;;;;5.57;2.03;;;;;;;8.41;95.83;98824.41;5068305;28;20041;-47
2022/10/05 03:01:43;;;;;;;4.10;2.53;;;;;;;8.36;95.90;98813.41;5068523;28;20121;-48
2022/10/05 03:04:33;;;;;;;2.90;2.42;;;;;;;7.97;95.98;98753.59;5051219;28;20123;-50
2022/10/05 03:07:19;;;;;;;2.75;2.10;;;;;;;8.40;96.28;98822.72;5068252;28;20040;-48
2022/10/05 03:10:35;;;;;;;2.10;1.60;;;;;;;8.33;96.13;98827.28;5052145;28;20040;-48
2022/10/05 03:13:11;;;;;;;3.00;1.95;;;;;;;8.24;96.21;98832.81;5030897;28;20508;-49
2022/10/05 03:15:53;;;;;;;2.53;1.70;;;;;;;8.21;96.33;98821.72;5066737;28;20045;-50
2022/10/05 03:18:30;;;;;;;3.47;2.13;;;;;;;8.25;97.04;98833.66;5051916;28;20044;-50
2022/10/05 03:21:16;;;;;;;6.10;2.17;;;;;;;8.28;97.14;98825.75;5069330;28;20185;-50
2022/10/05 03:23:42;;;;;;;4.35;2.70;;;;;;;8.25;97.40;98825.88;5052004;28;20028;-51
2022/10/05 03:26:33;;;;;;;2.55;2.00;;;;;;;8.31;97.70;98838.63;5086251;28;20530;-52
2022/10/05 03:29:13;;;;;;;2.20;1.80;;;;;;;8.06;97.34;98799.84;5068396;28;20040;-50
2022/10/05 03:31:52;;;;;;;3.20;2.15;;;;;;;8.25;97.97;98837.09;5069944;28;20047;-51
2022/10/05 03:34:27;;;;;;;3.50;2.40;;;;;;;8.25;97.96;98838.81;5069998;28;20056;-51
2022/10/05 03:37:06;;;;;;;3.05;2.30;;;;;;;8.12;98.16;98811.69;5050728;28;20040;-53
2022/10/05 03:39:40;;;;;;;3.03;2.08;;;;;;;7.93;97.81;98773.59;5082753;28;20048;-55
2022/10/05 03:42:23;;;;;;;3.47;2.10;;;;;;;8.31;98.22;98849.84;5072104;28;20044;-51
2022/10/05 03:45:16;;;;;;;2.55;2.00;;;;;;;8.17;98.23;98823.56;5051981;28;20147;-50
2022/10/05 03:47:51;;;;;;;2.38;1.80;;;;;;;8.22;98.35;98841.50;5067381;28;20078;-48
2022/10/05 03:51:02;;;;;;;2.50;1.67;;;;;;;8.16;98.63;98834.84;5068691;28;20036;-50
2022/10/05 03:53:40;;;;;;;2.33;1.73;;;;;;;8.05;98.42;98822.31;5049926;28;20097;-49
2022/10/05 03:56:34;;;;;;;3.15;2.00;;;;;;;8.19;98.50;98826.97;5051299;28;20044;-51
2022/10/05 03:59:35;;;;;;;3.05;1.80;;;;;;;8.20;98.55;98840.75;5049093;28;20109;-48
2022/10/05 04:02:08;;;;;;;2.33;1.70;;;;;;;8.19;98.18;98841.66;5039901;28;20074;-52
2022/10/05 04:04:38;;;;;;;2.28;1.60;;;;;;;8.08;97.93;98835.13;5051218;28;20032;-50
2022/10/05 04:07:05;;;;;;;1.98;1.52;;;;;;;7.91;97.92;98806.44;5035307;28;20044;-49
2022/10/05 04:09:44;;;;;;;4.13;2.10;;;;;;;8.17;97.98;98844.28;5050948;28;20071;-52
2022/10/05 04:12:18;;;;;;;2.55;1.73;;;;;;;8.23;98.34;98849.22;5067513;28;20530;-51
2022/10/05 04:14:58;;;;;;;2.38;1.75;;;;;;;8.26;98.20;98840.53;5051967;28;20573;-52
2022/10/05 04:17:41;;;;;;;2.50;1.70;;;;;;;8.34;98.21;98852.28;5068197;28;20062;-48
2022/10/05 04:20:28;;;;;;;2.75;1.73;;;;;;;8.41;98.38;98855.50;5067457;28;20091;-49
2022/10/05 04:24:02;;;;;;;2.17;1.60;;;;;;;8.51;98.08;98854.22;5034975;28;20122;-49
2022/10/05 04:26:50;;;;;;;2.85;1.80;;;;;;;8.65;97.86;98854.53;4974709;28;20073;-51
2022/10/05 04:29:30;;;;;;;3.03;1.50;;;;;;;8.55;97.09;98854.94;4955031;28;20058;-51
2022/10/05 04:32:02;;;;;;;2.55;1.52;;;;;;;8.52;97.15;98860.25;4970779;28;20500;-51
2022/10/05 04:35:06;;;;;;;2.90;1.52;;;;;;;8.52;97.39;98863.69;4970116;28;20065;-53
2022/10/05 04:38:09;;;;;;;2.35;1.67;;;;;;;8.63;96.58;98861.53;4971430;28;20112;-50
2022/10/05 04:41:16;;;;;;;3.15;1.50;;;;;;;8.55;96.26;98860.13;4985922;28;20038;-54
2022/10/05 04:43:51;;;;;;;2.30;1.70;;;;;;;8.56;95.87;98862.66;4970841;28;20054;-50
2022/10/05 04:46:42;;;;;;;1.95;1.40;;;;;;;8.48;95.53;98856.91;4987555;28;20081;-50
2022/10/05 04:49:20;;;;;;;3.25;1.50;;;;;;;8.40;95.12;98869.34;4969748;28;20129;-52
2022/10/05 04:52:16;;;;;;;2.03;1.67;;;;;;;8.52;95.22;98866.28;4971453;28;20441;-52
2022/10/05 04:55:21;;;;;;;3.50;1.77;;;;;;;8.54;94.92;98861.88;4969683;28;20054;-53
2022/10/05 04:58:02;;;;;;;3.45;1.48;;;;;;;8.53;94.77;98864.53;5039867;28;20051;-53
2022/10/05 05:00:51;;;;;;;2.75;1.90;;;;;;;8.12;94.66;98809.13;5067124;28;20055;-47
2022/10/05 05:03:37;;;;;;;3.92;2.30;;;;;;;8.41;94.80;98874.47;5051966;28;20091;-53
2022/10/05 05:06:10;;;;;;;2.88;1.95;;;;;;;8.42;95.22;98872.72;5067736;28;20047;-51
2022/10/05 05:09:02;;;;;;;5.60;3.35;;;;;;;8.32;95.85;98846.31;5067449;28;20071;-51
2022/10/05 05:11:57;;;;;;;3.53;2.13;;;;;;;8.53;95.25;98875.72;5076715;28;20487;-52
2022/10/05 05:14:36;;;;;;;10.50;7.07;;;;;;;8.56;94.93;98874.78;5067636;28;20046;-53
2022/10/05 05:17:30;;;;;;;3.60;2.10;;;;;;;8.55;95.25;98873.06;5084037;28;20040;-51
2022/10/05 05:20:39;;;;;;;3.70;1.98;;;;;;;8.51;94.77;98872.38;5082872;28;20036;-52
2022/10/05 05:23:20;;;;;;;3.47;1.60;;;;;;;8.52;94.08;98878.41;5062707;28;20439;-50
2022/10/05 05:26:10;;;;;;;3.83;2.42;;;;;;;8.52;94.78;98868.88;5068767;28;20423;-51
2022/10/05 05:28:45;;;;;;;;;;;;;;;8.49;94.62;98868.97;5034116;28;20062;-49
2022/10/05 05:31:19;;;;;;;3.15;1.90;;;;;;;8.46;94.68;98864.78;5086794;28;19942;-51
2022/10/05 05:34:17;;;;;;;3.42;1.50;;;;;;;8.52;94.77;98861.09;5058993;28;20149;-54
2022/10/05 05:37:11;;;;;;;6.83;2.50;;;;;;;8.53;94.93;98867.94;5044169;28;20060;-52
2022/10/05 05:40:09;;;;;;;2.75;1.75;;;;;;;8.57;94.82;98863.50;5067432;28;20053;-52
2022/10/05 05:42:38;;;;;;;5.47;2.10;;;;;;;8.60;94.76;98868.56;5049393;28;20522;-53
2022/10/05 05:45:33;;;;;;;3.50;1.80;;;;;;;8.62;94.71;98877.97;5067737;28;20122;-52
2022/10/05 05:48:05;;;;;;;2.38;1.77;;;;;;;8.58;94.22;98876.41;5066354;28;20043;-50
2022/10/05 05:50:50;;;;;;;3.47;1.80;;;;;;;8.56;94.77;98882.53;5083635;28;20041;-49
2022/10/05 05:53:46;;;;;;;3.88;1.73;;;;;;;8.55;95.79;98888.63;5064387;28;20574;-49
2022/10/05 05:56:19;;;;;;;3.28;1.70;;;;;;;8.48;95.17;98846.56;5066431;28;20045;-51
2022/10/05 05:58:51;;;;;;;3.35;2.13;;;;;;;8.76;95.21;98887.78;5040123;28;20045;-50
2022/10/05 06:01:34;;;;;;;4.00;2.42;;;;;;;8.83;95.41;98882.31;5050780;28;20041;-55
2022/10/05 06:04:11;;;;;;;4.72;1.90;;;;;;;8.93;94.50;98887.97;5054253;28;20167;-50
2022/10/05 06:06:41;;;;;;;4.30;2.10;;;;;;;8.82;94.24;98890.97;5054070;28;20051;-51
2022/10/05 06:09:34;;;;;;;3.10;1.50;;;;;;;8.76;93.94;98899.00;5066037;28;20090;-51
2022/10/05 06:12:24;;;;;;;1.83;1.13;;;;;;;8.63;93.05;98892.63;5069317;28;20621;-49
2022/10/05 06:15:17;;;;;;;1.88;1.38;;;;;;;8.55;92.93;98893.81;5036396;28;20048;-54
2022/10/05 06:17:47;;;;;;;3.33;1.92;;;;;;;8.63;93.44;98896.97;5052126;28;20140;-51
2022/10/05 06:20:43;;;;;;;3.60;1.90;;;;;;;8.61;93.47;98890.97;5054053;28;20041;-52
2022/10/05 06:23:22;;;;;;;4.70;1.70;;;;;;;8.32;93.45;98861.03;5058255;28;20068;-48
2022/10/05 06:26:04;;;;;;;1.00;0.80;;;;;;;8.31;93.21;98875.72;5036085;28;20036;-52
2022/10/05 06:28:30;;;;;;;1.55;0.90;;;;;;;8.42;92.97;98896.88;5070610;28;20040;-54
2022/10/05 06:31:05;;;;;;;3.30;0.98;;;;;;;8.44;92.09;98905.41;5053164;28;20044;-55
2022/10/05 06:33:50;;;;;;;1.27;1.00;;;;;;;8.48;91.38;98919.09;5050696;28;20423;-48
2022/10/05 06:36:22;;;;;;;1.23;0.80;;;;;;;8.47;91.06;98917.44;5082032;28;20106;-47
2022/10/05 06:38:58;;;;;;;4.65;0.65;;;;;;;8.41;90.20;98923.69;5052394;28;20503;-51
2022/10/05 06:41:52;;;;;;;6.15;0.85;;;;;;;8.36;89.94;98917.84;5101915;28;20072;-50
2022/10/05 06:44:36;;;;;;;1.50;0.65;;;;;;;8.43;89.54;98929.63;5067623;28;20520;-46
2022/10/05 06:47:35;;;;;;;0.85;0.50;;;;;;;8.48;88.53;98939.81;5033788;28;20056;-47
2022/10/05 06:50:30;;;;;;;2.13;0.70;;;;;;;8.51;87.50;98939.72;5050297;28;20146;-48
2022/10/05 06:53:30;;;;;;;1.27;0.60;;;;;;;8.32;87.35;98890.34;5037923;28;20048;-46
2022/10/05 06:56:09;;;;;;;0.80;0.63;;;;;;;8.79;87.00;98942.09;5051617;28;20142;-49
2022/10/05 06:58:45;;;;;;;1.20;0.50;;;;;;;9.11;85.70;98940.78;5069100;28;20040;-48
2022/10/05 07:01:22;;;;;;;1.23;0.52;;;;;;;9.23;84.65;98942.91;5051137;28;20052;-49
2022/10/05 07:04:23;;;;;;;0.80;0.50;;;;;;;9.10;83.70;98874.31;5047555;28;20048;-47
2022/10/05 07:07:15;;;;;;;2.33;0.63;;;;;;;9.67;82.42;98954.91;5051342;28;20072;-50
2022/10/05 07:09:59;;;;;;;6.63;1.30;;;;;;;9.88;82.32;98949.69;5047888;28;20061;-49
2022/10/05 07:12:40;;;;;;;2.75;1.42;;;;;;;10.33;81.33;98952.88;5015001;28;20124;-47
2022/10/05 07:15:52;;;;;;;3.05;1.60;;;;;;;10.87;80.59;98949.50;5022282;28;20067;-51
2022/10/05 07:18:47;;;;;;;0.93;0.65;;;;;;;10.97;77.60;98958.56;4972589;28;20057;-50
2022/10/05 07:21:43;;;;;;;3.75;0.80;;;;;;;10.97;75.88;98961.16;5031376;28;20401;-49
2022/10/05 07:24:26;;;;;;;2.15;0.80;;;;;;;11.22;74.84;98963.41;5058111;28;20051;-53
2022/10/05 07:27:02;;;;;;;2.17;0.80;;;;;;;11.18;73.93;98966.25;5068652;28;20048;-51
2022/10/05 07:29:36;;;;;;;4.90;1.20;;;;;;;11.26;73.87;98964.09;5068762;28;20055;-50
2022/10/05 07:38:11;;;;;;;0.90;0.60;;;;;;;11.31;71.49;98975.13;5068674;28;20369;-52
2022/10/05 07:40:48;;;;;;;3.58;0.80;;;;;;;11.24;71.45;98972.00;5069107;28;20044;-51
2022/10/05 07:43:33;;;;;;;1.65;0.90;;;;;;;11.11;70.49;98949.22;5085284;28;20037;-47
2022/10/05 07:46:04;;;;;;;2.47;0.70;;;;;;;11.36;70.01;98942.75;5069272;28;20078;-49
2022/10/05 07:48:36;;;;;;;1.80;0.70;;;;;;;11.41;69.36;98981.56;5068678;28;20040;-51
2022/10/05 07:51:20;;;;;;;1.75;0.82;;;;;;;11.26;70.07;98983.16;5069460;28;20059;-48
2022/10/05 07:54:14;;;;;;;1.30;0.90;;;;;;;11.06;70.22;98980.69;5052027;28;20126;-49
2022/10/05 07:56:43;;;;;;;1.45;0.80;;;;;;;10.86;70.58;98993.78;5047018;28;20052;-45
2022/10/05 07:59:11;;;;;;;;;;;;;;;10.82;71.84;98994.84;5084700;28;20530;-47
2022/10/05 08:01:40;;;;;;;2.10;0.90;;;;;;;10.99;71.18;98994.91;5066971;28;20002;-48
2022/10/05 08:04:16;;;;;;;2.75;1.40;;;;;;;10.97;72.06;99000.16;5050977;28;20040;-50
2022/10/05 08:06:53;;;;;;;3.28;1.50;;;;;;;11.17;72.07;98995.78;5051375;28;20036;-47
2022/10/05 08:09:41;;;;;;;1.95;1.27;;;;;;;11.46;71.34;98993.44;5067506;28;20396;-50
2022/10/05 08:12:32;;;;;;;3.67;1.10;;;;;;;11.56;70.69;98999.06;5069471;28;20048;-47
2022/10/05 08:14:57;;;;;;;4.97;1.40;;;;;;;11.68;70.28;98997.59;5067945;28;20105;-50
2022/10/05 08:17:30;;;;;;;6.63;1.42;;;;;;;11.94;70.28;99007.56;5069059;28;20495;-46
2022/10/05 08:20:23;;;;;;;2.58;1.10;;;;;;;11.83;69.41;98999.47;5069001;28;20048;-50
2022/10/05 08:23:04;;;;;;;3.53;1.13;;;;;;;11.50;69.78;99001.97;5067666;28;20032;-46
2022/10/05 08:25:45;;;;;;;5.15;1.80;;;;;;;10.95;70.73;98977.72;5067032;28;20036;-50
2022/10/05 08:28:17;;;;;;;4.15;1.40;;;;;;;11.08;71.29;99006.63;5063935;28;20040;-47
2022/10/05 08:30:55;;;;;;;4.07;1.20;;;;;;;11.19;71.33;99007.81;5067601;28;20136;-47
2022/10/05 08:33:21;;;;;;;3.08;1.20;;;;;;;10.99;70.88;99013.09;5067605;28;20056;-48
2022/10/05 08:36:01;;;;;;;2.05;1.23;;;;;;;10.97;71.03;99020.97;5052199;28;20056;-48
2022/10/05 08:38:32;;;;;;;2.00;1.20;;;;;;;10.86;71.40;99020.63;5067803;28;20559;-51
2022/10/05 08:41:12;;;;;;;3.53;1.30;;;;;;;10.72;72.32;99017.81;5050956;28;20044;-50
2022/10/05 08:43:50;;;;;;;1.35;1.02;;;;;;;10.61;72.34;99020.06;5067686;28;20054;-52
2022/10/05 08:46:38;;;;;;;1.88;1.10;;;;;;;10.16;75.53;99023.75;5069056;28;20038;-50
2022/10/05 08:49:28;;;;;;;3.10;1.30;;;;;;;9.75;78.11;99028.06;5067896;28;20436;-47
2022/10/05 08:52:02;;;;;;;4.53;1.50;;;;;;;9.64;80.40;99032.88;5056600;28;20075;-50
2022/10/05 08:54:52;;;;;;;4.25;1.70;;;;;;;9.59;81.95;99029.59;5068843;28;20032;-51
2022/10/05 08:57:33;;;;;;;6.15;1.70;;;;;;;9.40;83.33;99036.47;5067851;28;20113;-54
2022/10/05 09:00:18;;;;;;;5.13;1.38;;;;;;;9.38;84.94;99046.03;5068510;28;20040;-51
2022/10/05 09:03:05;;;;;;;13.27;2.17;;;;;;;9.26;85.49;99034.38;5048876;28;20041;-50
2022/10/05 09:05:59;;;;;;;7.97;2.10;;;;;;;9.54;86.35;99041.94;5056799;28;20396;-48
2022/10/05 09:08:28;;;;;;;4.38;1.73;;;;;;;9.83;86.63;99045.09;5068763;28;20400;-50
2022/10/05 09:11:00;;;;;;;4.10;1.58;;;;;;;10.07;86.59;99034.50;5068273;28;20047;-53
2022/10/05 09:13:44;;;;;;;1.95;1.15;;;;;;;10.39;85.62;99046.16;5068951;28;20040;-47
2022/10/05 09:16:25;;;;;;;2.15;1.05;;;;;;;10.75;84.93;99038.47;5067642;28;20045;-49
2022/10/05 09:19:21;;;;;;;2.70;1.70;;;;;;;11.45;83.77;99043.84;5067416;28;20116;-48
2022/10/05 09:22:20;;;;;;;2.92;1.17;;;;;;;12.30;81.92;99046.53;5066837;28;20045;-51
2022/10/05 09:24:56;;;;;;;2.30;1.13;;;;;;;12.50;78.53;99054.19;5068528;28;20500;-49
2022/10/05 09:27:27;;;;;;;2.42;1.20;;;;;;;12.48;77.00;99050.81;5069089;28;20590;-52
2022/10/05 09:29:56;;;;;;;2.30;1.40;;;;;;;12.54;76.53;99049.66;5072000;28;20507;-48
2022/10/05 09:32:57;;;;;;;2.10;1.23;;;;;;;12.61;75.45;99057.06;5072030;28;20040;-50
2022/10/05 09:35:56;;;;;;;1.92;0.85;;;;;;;12.11;75.16;99059.69;5053814;28;20135;-49
2022/10/05 09:38:45;;;;;;;1.33;0.73;;;;;;;11.35;73.82;99060.81;5070886;28;20044;-48
2022/10/05 09:41:30;;;;;;;0.80;0.65;;;;;;;11.01;74.96;99071.09;5071952;28;20059;-47
2022/10/05 09:44:11;;;;;;;1.38;0.50;;;;;;;10.52;77.03;99072.47;5072330;28;20094;-49
2022/10/05 09:46:48;;;;;;;2.20;0.60;;;;;;;10.24;78.82;99085.78;5072066;28;20396;-47
2022/10/05 09:49:59;;;;;;;2.25;0.80;;;;;;;10.07;80.84;99081.25;5070921;28;20044;-45
2022/10/05 09:52:30;;;;;;;2.17;0.90;;;;;;;10.17;82.60;99080.00;5029143;28;20095;-46
2022/10/05 09:55:31;;;;;;;1.67;0.90;;;;;;;10.32;84.00;99055.13;5017699;28;20040;-46
2022/10/05 09:57:59;;;;;;;1.70;1.05;;;;;;;10.83;83.73;99082.34;5035348;28;20053;-44
2022/10/05 10:00:37;;;;;;;3.40;1.88;;;;;;;11.21;84.53;99086.63;5023084;28;20049;-46
2022/10/05 10:03:06;;;;;;;1.48;0.82;;;;;;;11.61;84.06;99085.59;5017898;28;20181;-46
2022/10/05 10:05:50;;;;;;;2.45;1.00;;;;;;;12.15;82.74;99084.66;5023656;28;20030;-46
2022/10/05 10:08:59;;;;;;;3.08;0.80;;;;;;;13.34;80.89;99081.88;5011265;28;20033;-46
2022/10/05 10:12:11;;;;;;;0.77;0.75;;;;;;;14.36;76.39;99089.03;5028106;28;20041;-45
2022/10/05 10:14:49;;;;;;;1.42;0.50;;;;;;;14.37;73.72;99098.63;5027487;28;20258;-47
2022/10/05 10:17:44;;;;;;;0.70;0.43;;;;;;;14.30;72.49;99098.09;5027077;28;20575;-48
2022/10/05 10:20:29;;;;;;;1.05;0.50;;;;;;;13.96;70.76;99101.00;4992977;28;20376;-47
2022/10/05 10:23:10;;;;;;;1.05;0.73;;;;;;;14.51;69.80;99103.00;4984604;28;20042;-49
2022/10/05 10:26:16;;;;;;;1.30;0.75;;;;;;;16.62;61.67;99048.31;4998479;28;20049;-42
2022/10/05 10:29:07;;;;;;;3.10;1.50;;;;;;;19.44;57.10;99094.66;5037819;28;20546;-42
2022/10/05 10:31:45;;;;;;;1.83;1.10;;;;;;;20.56;53.97;99103.88;5069112;28;20558;-45
2022/10/05 10:34:38;;;;;;;1.30;0.80;;;;;;;18.78;53.90;99103.44;5070797;28;20142;-46
2022/10/05 10:37:12;;;;;;;1.40;1.00;;;;;;;17.46;55.50;99110.66;5069451;28;20037;-43
2022/10/05 10:40:03;;;;;;;1.85;0.60;;;;;;;16.75;56.52;99109.50;5067003;28;20040;-43
2022/10/05 10:42:40;;;;;;;0.85;0.55;;;;;;;15.53;57.07;99106.28;5052705;28;20423;-42
2022/10/05 10:45:29;;;;;;;1.13;0.80;;;;;;;14.94;57.79;99109.97;5070740;28;20037;-42
2022/10/05 10:48:04;;;;;;;1.52;0.80;;;;;;;14.84;58.74;99104.47;5066261;28;20384;-41
2022/10/05 10:50:48;;;;;;;1.35;0.98;;;;;;;14.99;59.52;99113.13;5070146;28;20059;-42
2022/10/05 10:53:35;;;;;;;1.23;0.90;;;;;;;15.07;59.70;99110.88;5070200;28;20058;-44
2022/10/05 10:56:07;;;;;;;0.88;0.70;;;;;;;15.20;59.51;99113.59;5067753;28;20067;-44
2022/10/05 10:58:53;;;;;;;0.63;0.40;;;;;;;15.05;58.41;99112.78;5070452;28;20423;-46
2022/10/05 11:01:43;;;;;;;1.63;0.85;;;;;;;14.79;57.98;99116.97;5070323;28;20040;-44
2022/10/05 11:04:27;;;;;;;1.45;0.90;;;;;;;14.97;57.91;99111.56;5052860;28;20048;-44
2022/10/05 11:07:11;;;;;;;1.23;0.90;;;;;;;14.96;57.90;99115.97;5070416;28;20032;-46
2022/10/05 11:09:56;;;;;;;2.13;0.73;;;;;;;14.70;58.47;99129.78;5068877;28;20052;-45
2022/10/05 11:12:47;;;;;;;1.63;0.90;;;;;;;14.37;58.27;99127.38;5050692;28;20047;-44
2022/10/05 11:15:48;;;;;;;1.38;0.70;;;;;;;16.32;52.74;99127.28;5040682;28;20048;-45
2022/10/05 11:18:18;;;;;;;1.42;0.60;;;;;;;15.65;53.77;99126.44;5031589;28;20053;-45
2022/10/05 11:21:20;;;;;;;1.30;0.82;;;;;;;17.45;50.86;99127.38;5058493;28;20051;-42
2022/10/05 11:23:58;;;;;;;0.82;0.70;;;;;;;17.19;50.24;99137.94;5068889;28;20043;-42
2022/10/05 11:26:45;;;;;;;1.20;0.65;;;;;;;17.21;50.47;99141.31;5070527;28;20051;-43
2022/10/05 11:29:45;;;;;;;2.35;0.80;;;;;;;16.71;50.85;99141.31;5052519;28;20048;-44
2022/10/05 11:32:32;;;;;;;1.60;0.70;;;;;;;15.91;51.82;99148.34;5069055;28;20032;-44
2022/10/05 11:35:19;;;;;;;4.00;0.90;;;;;;;14.46;53.68;99157.38;5051172;28;20542;-44
2022/10/05 11:38:06;;;;;;;2.40;0.93;;;;;;;13.62;56.21;99140.38;5065815;28;20074;-44
2022/10/05 11:41:10;;;;;;;1.10;0.80;;;;;;;13.25;57.76;99158.06;5068576;28;21376;-44
2022/10/05 11:43:59;;;;;;;1.35;0.80;;;;;;;12.81;59.75;99167.34;5069256;28;20036;-42
2022/10/05 11:46:40;;;;;;;2.58;0.90;;;;;;;12.73;60.77;99165.13;5077530;28;20048;-43
2022/10/05 11:49:35;;;;;;;0.95;0.65;;;;;;;12.31;64.13;99171.59;5083093;28;20044;-44
2022/10/05 11:52:00;;;;;;;0.77;0.65;;;;;;;11.69;67.88;99181.56;5065289;28;20047;-42
2022/10/05 11:55:08;;;;;;;0.82;0.70;;;;;;;11.43;71.33;99172.34;5069336;28;20055;-44
2022/10/05 11:57:37;;;;;;;0.95;0.77;;;;;;;11.62;71.31;99177.56;5067882;28;20123;-43
2022/10/05 12:00:05;;;;;;;1.45;1.08;;;;;;;11.55;71.49;99183.97;5067790;28;20446;-45
2022/10/05 12:02:44;;;;;;;0.63;0.50;;;;;;;11.42;71.66;99186.28;5069151;28;20032;-45
2022/10/05 12:05:31;;;;;;;3.20;0.90;;;;;;;11.29;71.91;99196.41;5050820;28;20063;-43
2022/10/05 12:08:06;;;;;;;1.15;0.70;;;;;;;11.26;72.15;99199.13;5067902;28;20110;-41
2022/10/05 12:11:00;;;;;;;3.22;1.08;;;;;;;11.30;71.96;99198.09;5069517;28;20040;-45
2022/10/05 12:14:05;;;;;;;1.35;0.82;;;;;;;11.30;71.87;99194.66;5052978;28;20036;-45
2022/10/05 12:16:47;;;;;;;4.63;1.08;;;;;;;11.17;72.10;99193.50;5017567;28;20057;-45
2022/10/05 12:19:42;;;;;;;8.10;1.38;;;;;;;11.40;72.32;99196.78;5047754;28;20052;-44
2022/10/05 12:22:20;;;;;;;1.65;0.70;;;;;;;11.21;73.20;99201.09;5068027;28;20048;-42
2022/10/05 12:25:16;;;;;;;1.08;0.50;;;;;;;10.98;74.40;99203.88;5050746;28;20039;-44
2022/10/05 12:27:45;;;;;;;0.90;0.60;;;;;;;10.82;74.89;99208.91;5067478;28;20036;-43
2022/10/05 12:30:15;;;;;;;5.30;1.55;;;;;;;10.92;74.94;99212.78;5067917;28;20052;-42
2022/10/05 12:33:02;;;;;;;4.55;1.10;;;;;;;11.42;74.40;99214.91;5067477;28;20036;-43
2022/10/05 12:35:31;;;;;;;2.15;0.70;;;;;;;11.68;72.55;99209.34;5061547;28;20511;-42
2022/10/05 12:38:09;;;;;;;0.85;0.70;;;;;;;12.09;71.73;99206.59;5082447;28;20051;-49
2022/10/05 12:40:41;;;;;;;1.13;0.70;;;;;;;12.18;70.56;99209.63;5069025;28;20040;-42
2022/10/05 12:43:41;;;;;;;3.10;0.90;;;;;;;11.85;70.51;99217.25;5067480;28;20729;-42
2022/10/05 12:46:26;;;;;;;2.95;0.77;;;;;;;12.04;70.63;99213.78;5049314;28;20086;-43
2022/10/05 12:49:08;;;;;;;1.38;0.70;;;;;;;11.91;70.11;99215.28;5065047;28;20032;-41
2022/10/05 12:52:12;;;;;;;1.58;0.80;;;;;;;11.50;70.41;99225.84;5064689;28;20581;-43
2022/10/05 12:54:51;;;;;;;2.03;0.80;;;;;;;11.37;70.74;99219.47;5045590;28;20065;-42
2022/10/05 12:57:45;;;;;;;2.42;0.80;;;;;;;10.94;70.87;99197.94;5066960;28;20036;-42
2022/10/05 13:00:13;;;;;;;1.80;0.70;;;;;;;11.07;70.72;99216.47;5066398;28;20209;-44